San Ildefonso, Spain
Current Conditions -  °F | °C
As of 7:00 PM on Saturday 24 Jan 2015 (Local Time) from LECV Reporting Station
Clear Clear  
Wind Chill: 36°   Ceiling: Unl
Heat Index: 45°   Visibility: 6mi
Dew Point: 32°   Wind: 24mph
Humidity: 61%   Direction: 20°NNE
Pressure: 30.3"   Gusts: NA
Location:  40.9°N, 4.01°W
Report Text: LECV 241800Z 02021KT CAVOK 07/M00 Q1026
Loading
Personal Weather Stations






























Interactive Weather Map New forecast layout! Learn more

10-Day Weather Forecast

Advertisements
Track Severe Weather on mobile